createdAt,value
2022-09-06T08:04:41.116Z,54.23
2022-09-06T08:09:44.818Z,54.44
2022-09-06T08:14:48.471Z,54.73
2022-09-06T08:19:55.979Z,55.36
2022-09-06T08:24:59.554Z,55.88
2022-09-06T08:30:03.383Z,56.17
2022-09-06T08:35:09.002Z,56.26
2022-09-06T08:40:14.409Z,56.51
2022-09-06T08:45:19.999Z,55.96
2022-09-06T08:50:29.411Z,56.33
2022-09-06T08:55:38.466Z,56.33
2022-09-06T09:00:49.202Z,56.82
2022-09-06T09:05:56.651Z,55.88
2022-09-06T09:11:03.516Z,55.44
2022-09-06T09:16:08.252Z,55.14
2022-09-06T09:21:14.175Z,54.96
2022-09-06T09:26:18.293Z,55.47
2022-09-06T09:31:35.295Z,54.94
2022-09-06T09:42:06.987Z,54.55
2022-09-06T09:47:26.294Z,54.03
2022-09-06T09:52:32.775Z,53.83
2022-09-06T09:57:46.224Z,53.03
2022-09-06T10:02:52.112Z,52.56
2022-09-06T10:07:59.252Z,52.68
2022-09-06T10:13:10.065Z,52.04
2022-09-06T10:18:19.749Z,51.73
2022-09-06T10:29:04.924Z,51.72
2022-09-06T10:34:46.191Z,50.40
2022-09-06T10:39:57.265Z,50.33
2022-09-06T10:45:17.848Z,50.60
2022-09-06T10:50:23.014Z,50.33
2022-09-06T10:55:30.957Z,50.45
2022-09-06T11:00:39.131Z,50.05
2022-09-06T11:05:48.489Z,50.14
2022-09-06T11:10:55.611Z,50.01
2022-09-06T11:16:08.016Z,49.78
2022-09-06T11:21:47.356Z,49.69
2022-09-06T11:27:05.638Z,49.73
2022-09-06T11:32:29.950Z,49.44
2022-09-06T11:37:35.822Z,48.83
2022-09-06T11:43:18.276Z,48.50
2022-09-06T11:48:37.204Z,48.53
2022-09-06T11:54:06.103Z,48.55
2022-09-06T11:59:27.355Z,48.48
2022-09-06T12:05:09.364Z,48.44
2022-09-06T12:10:50.864Z,48.50
2022-09-06T12:15:56.971Z,48.67
2022-09-06T12:21:04.381Z,47.84
2022-09-06T12:26:09.276Z,47.28
2022-09-06T12:31:38.766Z,47.01
2022-09-06T12:36:52.682Z,46.97
2022-09-06T12:42:02.243Z,46.73
2022-09-06T12:47:15.711Z,46.69
2022-09-06T12:52:20.876Z,46.87
2022-09-06T12:57:26.497Z,47.04
2022-09-06T13:02:41.258Z,47.07
2022-09-06T13:07:47.661Z,46.89
2022-09-06T13:12:53.062Z,47.93
2022-09-06T13:18:22.585Z,48.73
2022-09-06T13:23:29.152Z,48.42
2022-09-06T13:28:36.380Z,48.60
2022-09-06T13:33:42.304Z,47.23
2022-09-06T13:38:47.460Z,46.81
2022-09-06T13:43:59.055Z,46.13
2022-09-06T13:49:09.217Z,46.62
2022-09-06T13:54:17.092Z,46.92
2022-09-06T13:59:21.172Z,46.66
2022-09-06T14:04:26.475Z,46.50
2022-09-06T14:09:30.556Z,46.73
2022-09-06T14:14:33.968Z,48.11
2022-09-06T14:19:41.395Z,49.35
2022-09-06T14:24:45.371Z,49.44
2022-09-06T14:29:49.289Z,49.66
2022-09-06T14:34:54.416Z,49.61
2022-09-06T14:39:58.093Z,50.25
2022-09-06T14:45:04.023Z,50.29
2022-09-06T14:50:10.003Z,50.62
2022-09-06T14:55:13.656Z,51.30
2022-09-06T15:00:17.761Z,50.17
2022-09-06T15:05:22.581Z,50.76
2022-09-06T15:10:28.418Z,50.40
2022-09-06T15:15:32.226Z,50.17
2022-09-06T15:20:37.709Z,49.71
2022-09-06T15:25:47.418Z,50.49
2022-09-06T15:30:51.222Z,50.38
2022-09-06T15:35:56.368Z,50.39
2022-09-06T15:41:08.066Z,50.13
2022-09-06T15:46:12.149Z,50.80
2022-09-06T15:51:20.193Z,50.79
2022-09-06T15:56:23.807Z,50.86
2022-09-06T16:01:28.004Z,51.38
2022-09-06T16:06:36.367Z,51.58
2022-09-06T16:11:40.101Z,51.49
2022-09-06T16:16:48.654Z,51.37
2022-09-06T16:21:53.602Z,51.45
2022-09-06T16:26:57.288Z,51.75
2022-09-06T16:32:00.935Z,51.62
2022-09-06T16:37:07.986Z,51.75
2022-09-06T16:42:12.552Z,52.02
2022-09-06T16:47:16.865Z,51.73
2022-09-06T16:52:21.991Z,51.70
2022-09-06T16:57:25.699Z,51.79
2022-09-06T17:02:29.350Z,52.06
2022-09-06T17:07:34.408Z,52.17
2022-09-06T17:12:38.034Z,52.52
2022-09-06T17:17:41.738Z,52.60
2022-09-06T17:22:51.007Z,52.71
2022-09-06T17:27:54.738Z,53.00
2022-09-06T17:32:58.651Z,53.11
2022-09-06T17:38:03.878Z,53.20
2022-09-06T17:43:09.964Z,53.42
2022-09-06T17:48:13.759Z,53.26
2022-09-06T17:53:19.234Z,53.26
2022-09-06T17:58:23.040Z,53.17
2022-09-06T18:03:27.613Z,53.00
2022-09-06T18:08:51.462Z,53.08
2022-09-06T18:14:01.796Z,52.96
2022-09-06T18:19:07.905Z,52.95
2022-09-06T18:29:48.351Z,52.76
2022-09-06T18:34:54.223Z,52.72
2022-09-06T18:40:00.713Z,52.61
2022-09-06T18:45:04.767Z,52.80
2022-09-06T18:50:09.871Z,52.88
2022-09-06T18:55:15.161Z,52.83
2022-09-06T19:00:19.097Z,52.81
2022-09-06T19:05:22.829Z,53.02
2022-09-06T19:10:29.211Z,53.13
2022-09-06T19:15:33.082Z,53.22
2022-09-06T19:20:37.193Z,53.18
2022-09-06T19:25:42.590Z,52.93
2022-09-06T19:30:46.338Z,53.00
2022-09-06T19:36:11.573Z,53.05
2022-09-06T19:41:26.184Z,53.01
2022-09-06T19:46:30.474Z,53.02
2022-09-06T19:51:34.435Z,53.25
2022-09-06T19:56:40.023Z,53.20
2022-09-06T20:01:47.790Z,53.14
2022-09-06T20:06:54.165Z,53.38
2022-09-06T20:11:59.318Z,53.35
2022-09-06T20:17:32.238Z,53.31
2022-09-06T20:22:36.494Z,53.38
2022-09-06T20:27:44.623Z,53.36
2022-09-06T20:32:49.068Z,53.46
2022-09-06T20:37:52.975Z,53.54
2022-09-06T20:43:02.489Z,53.95
2022-09-06T20:48:06.268Z,54.03
2022-09-06T20:53:12.497Z,54.17
2022-09-06T20:58:17.738Z,54.11
2022-09-06T21:03:22.901Z,54.42
2022-09-06T21:08:34.669Z,54.31
2022-09-06T21:13:49.975Z,54.44
2022-09-06T21:18:54.959Z,54.42
2022-09-06T21:23:59.119Z,54.43
2022-09-06T21:29:07.227Z,54.53
2022-09-06T21:34:16.877Z,54.43
2022-09-06T21:39:20.991Z,54.80
2022-09-06T21:44:26.257Z,55.19
2022-09-06T21:49:31.038Z,55.37
